Observations for SEATTLE-TACOMA INTL, WA (SEA)

KSEA 252153Z 20008KT 10SM FEW018 OVC060 18/12 A3012 RMK AO2 SLP206 T01780117
KSEA 252053Z 21005KT 10SM SCT015 OVC070 17/12 A3013 RMK AO2 RAB41E53 SLP207 P0000 60000 T01720117 53003 
KSEA 251953Z 20006KT 10SM SCT015 OVC065 16/12 A3012 RMK AO2 RAB33E47 SLP206 P0000 T01610117 
KSEA 251853Z 18006KT 10SM FEW013 OVC075 16/12 A3012 RMK AO2 SLP204 T01610117
KSEA 251753Z 19007KT 10SM FEW005 OVC075 15/12 A3012 RMK AO2 SLP204 60001 T01500117 10150 20133 51005
KSEA 251739Z 18007KT 10SM FEW005 BKN070 OVC090 15/12 A3012 RMK AO2 T01500117
KSEA 251653Z 15007KT 10SM FEW010 BKN075 BKN100 14/12 A3011 RMK AO2 RAE27 SLP201 P0000 T01440117 
KSEA 251553Z 19004KT 10SM -RA OVC085 14/12 A3011 RMK AO2 RAB50 SLP202 P0000 T01390117   
KSEA 251453Z 19004KT 10SM SCT080 OVC100 14/12 A3010 RMK AO2 RAE08 SLP199 P0000 60001 T01390117 51001
KSEA 251353Z 16006KT 10SM -RA FEW050 BKN085 OVC110 14/12 A3010 RMK AO2 RAB38 SLP197 P0001 T01390117 
KSEA 251253Z 00000KT 10SM FEW050 BKN090 OVC110 14/11 A3010 RMK AO2 SLP198 T01390111 
KSEA 251153Z 00000KT 10SM FEW049 BKN075 OVC100 15/11 A3010 RMK AO2 SLP196 T01500106 10161 20144 55001   
KSEA 251053Z 00000KT 10SM SCT055 BKN110 OVC150 14/11 A3009 RMK AO2 SLP195 T01440106 
KSEA 250953Z 13004KT 10SM SCT055 BKN110 OVC150 15/11 A3010 RMK AO2 SLP196 T01500106 
KSEA 250853Z 12006KT 10SM SCT065 BKN110 OVC150 15/11 A3010 RMK AO2 SLP198 T01500106 55003   
KSEA 250753Z 17004KT 10SM FEW070 SCT110 OVC150 15/10 A3010 RMK AO2 SLP198 T01500100 402220100   
KSEA 250653Z 00000KT 10SM FEW110 OVC180 16/09 A3010 RMK AO2 SLP199 T01560094
KSEA 250553Z 31003KT 10SM SCT120 BKN200 15/11 A3011 RMK AO2 SLP202 T01500106 10217 20144 52003  
KSEA 250453Z 00000KT 10SM SCT110 BKN150 17/09 A3011 RMK AO2 SLP201 T01670089
KSEA 250353Z 00000KT 10SM SCT120 18/08 A3010 RMK AO2 SLP199 T01830083   
KSEA 250253Z 00000KT 10SM FEW100 BKN200 17/09 A3010 RMK AO2 SLP199 T01720094 56003  
KSEA 250153Z 29003KT 10SM FEW070 BKN200 19/09 A3010 RMK AO2 SLP199 T01890094
KSEA 250053Z 35004KT 10SM FEW045 BKN200 21/09 A3010 RMK AO2 SLP199 T02110089
KSEA 242353Z 28006KT 10SM FEW045 BKN200 21/08 A3011 RMK AO2 SLP202 T02060078 10222 20167 56008  
KSEA 242253Z 29007KT 10SM FEW045 FEW210 21/07 A3011 RMK AO2 SLP202 T02110072
KSEA 242153Z 24006KT 10SM FEW045 FEW210 21/09 A3012 RMK AO2 SLP205 T02110094